sensor_id;sensor_type;location;lat;lon;timestamp;pressure;altitude;pressure_sealevel;temperature;humidity
6030;BME280;3043;42.682;23.376;2022-07-19T00:00:22;95619.91;;;19.17;100.00
6030;BME280;3043;42.682;23.376;2022-07-19T00:02:50;95633.19;;;19.14;100.00
6030;BME280;3043;42.682;23.376;2022-07-19T00:05:16;95621.94;;;19.12;100.00
6030;BME280;3043;42.682;23.376;2022-07-19T00:07:42;95618.38;;;19.13;100.00
6030;BME280;3043;42.682;23.376;2022-07-19T00:10:10;95614.06;;;19.12;100.00
6030;BME280;3043;42.682;23.376;2022-07-19T00:12:36;95620.22;;;19.11;100.00
6030;BME280;3043;42.682;23.376;2022-07-19T00:15:03;95615.03;;;19.10;100.00
6030;BME280;3043;42.682;23.376;2022-07-19T00:17:29;95618.66;;;19.07;100.00
6030;BME280;3043;42.682;23.376;2022-07-19T00:19:55;95624.06;;;19.04;100.00
6030;BME280;3043;42.682;23.376;2022-07-19T00:22:20;95615.25;;;19.05;100.00
6030;BME280;3043;42.682;23.376;2022-07-19T00:24:46;95618.97;;;19.01;100.00
6030;BME280;3043;42.682;23.376;2022-07-19T00:27:11;95615.25;;;19.05;100.00
6030;BME280;3043;42.682;23.376;2022-07-19T00:29:37;95616.13;;;19.06;100.00
6030;BME280;3043;42.682;23.376;2022-07-19T00:32:03;95623.13;;;19.05;100.00
6030;BME280;3043;42.682;23.376;2022-07-19T00:34:28;95620.66;;;19.02;100.00
6030;BME280;3043;42.682;23.376;2022-07-19T00:36:54;95618.97;;;19.01;100.00
6030;BME280;3043;42.682;23.376;2022-07-19T00:39:19;95622.63;;;18.97;100.00
6030;BME280;3043;42.682;23.376;2022-07-19T00:41:45;95608.25;;;18.87;100.00
6030;BME280;3043;42.682;23.376;2022-07-19T00:44:10;95617.81;;;18.88;100.00
6030;BME280;3043;42.682;23.376;2022-07-19T00:46:36;95615.19;;;18.88;100.00
6030;BME280;3043;42.682;23.376;2022-07-19T00:49:03;95611.81;;;18.86;100.00
6030;BME280;3043;42.682;23.376;2022-07-19T00:51:29;95616.41;;;18.81;100.00
6030;BME280;3043;42.682;23.376;2022-07-19T00:53:55;95614.66;;;18.82;100.00
6030;BME280;3043;42.682;23.376;2022-07-19T00:56:22;95613.13;;;18.76;100.00
6030;BME280;3043;42.682;23.376;2022-07-19T00:58:50;95613.28;;;18.73;100.00
6030;BME280;3043;42.682;23.376;2022-07-19T01:01:16;95616.97;;;18.69;100.00
6030;BME280;3043;42.682;23.376;2022-07-19T01:03:43;95611.72;;;18.69;100.00
6030;BME280;3043;42.682;23.376;2022-07-19T01:06:09;95614.34;;;18.69;100.00
6030;BME280;3043;42.682;23.376;2022-07-19T01:08:36;95604.22;;;18.62;100.00
6030;BME280;3043;42.682;23.376;2022-07-19T01:11:03;95602.38;;;18.64;100.00
6030;BME280;3043;42.682;23.376;2022-07-19T01:13:30;95610.19;;;18.65;100.00
6030;BME280;3043;42.682;23.376;2022-07-19T01:15:55;95613.56;;;18.67;100.00
6030;BME280;3043;42.682;23.376;2022-07-19T01:18:20;95601.81;;;18.57;100.00
6030;BME280;3043;42.682;23.376;2022-07-19T01:20:46;95605.22;;;18.59;100.00
6030;BME280;3043;42.682;23.376;2022-07-19T01:23:11;95604.50;;;18.56;100.00
6030;BME280;3043;42.682;23.376;2022-07-19T01:25:37;95612.44;;;18.54;100.00
6030;BME280;3043;42.682;23.376;2022-07-19T01:28:04;95601.38;;;18.48;100.00
6030;BME280;3043;42.682;23.376;2022-07-19T01:30:31;95602.38;;;18.45;100.00
6030;BME280;3043;42.682;23.376;2022-07-19T01:32:57;95607.63;;;18.45;100.00
6030;BME280;3043;42.682;23.376;2022-07-19T01:35:23;95607.63;;;18.45;100.00
6030;BME280;3043;42.682;23.376;2022-07-19T01:37:50;95598.31;;;18.38;100.00
6030;BME280;3043;42.682;23.376;2022-07-19T01:40:17;95596.66;;;18.36;100.00
6030;BME280;3043;42.682;23.376;2022-07-19T01:42:45;95593.44;;;18.29;100.00
6030;BME280;3043;42.682;23.376;2022-07-19T01:45:11;95596.94;;;18.30;100.00
6030;BME280;3043;42.682;23.376;2022-07-19T01:47:37;95597.50;;;18.36;100.00
6030;BME280;3043;42.682;23.376;2022-07-19T01:50:04;95601.88;;;18.36;100.00
6030;BME280;3043;42.682;23.376;2022-07-19T01:52:31;95595.94;;;18.32;100.00
6030;BME280;3043;42.682;23.376;2022-07-19T01:54:56;95606.41;;;18.32;100.00
6030;BME280;3043;42.682;23.376;2022-07-19T01:57:21;95596.94;;;18.30;100.00
6030;BME280;3043;42.682;23.376;2022-07-19T01:59:47;95601.16;;;18.32;100.00
6030;BME280;3043;42.682;23.376;2022-07-19T02:02:13;95598.97;;;18.23;100.00
6030;BME280;3043;42.682;23.376;2022-07-19T02:04:38;95594.22;;;18.31;100.00
6030;BME280;3043;42.682;23.376;2022-07-19T02:07:04;95600.47;;;18.29;100.00
6030;BME280;3043;42.682;23.376;2022-07-19T02:09:29;95602.03;;;18.33;100.00
6030;BME280;3043;42.682;23.376;2022-07-19T02:11:54;95602.25;;;18.28;100.00
6030;BME280;3043;42.682;23.376;2022-07-19T02:14:20;95610.25;;;18.25;100.00
6030;BME280;3043;42.682;23.376;2022-07-19T02:16:47;95607.69;;;18.24;100.00
6030;BME280;3043;42.682;23.376;2022-07-19T02:19:12;95603.72;;;18.15;100.00
6030;BME280;3043;42.682;23.376;2022-07-19T02:21:38;95610.78;;;18.13;100.00
6030;BME280;3043;42.682;23.376;2022-07-19T02:24:05;95595.06;;;18.13;100.00
6030;BME280;3043;42.682;23.376;2022-07-19T02:26:32;95607.38;;;18.11;100.00
6030;BME280;3043;42.682;23.376;2022-07-19T02:28:57;95603.97;;;18.09;100.00
6030;BME280;3043;42.682;23.376;2022-07-19T02:31:23;95606.81;;;18.05;100.00
6030;BME280;3043;42.682;23.376;2022-07-19T02:33:48;95609.34;;;18.06;100.00
6030;BME280;3043;42.682;23.376;2022-07-19T02:36:14;95609.84;;;17.94;100.00
6030;BME280;3043;42.682;23.376;2022-07-19T02:38:40;95608.84;;;17.98;100.00
6030;BME280;3043;42.682;23.376;2022-07-19T02:41:06;95614.28;;;17.94;100.00
6030;BME280;3043;42.682;23.376;2022-07-19T02:43:31;95616.94;;;17.92;100.00
6030;BME280;3043;42.682;23.376;2022-07-19T02:45:57;95617.84;;;17.91;100.00
6030;BME280;3043;42.682;23.376;2022-07-19T02:48:22;95616.34;;;17.86;100.00
6030;BME280;3043;42.682;23.376;2022-07-19T02:50:48;95620.88;;;17.82;100.00
6030;BME280;3043;42.682;23.376;2022-07-19T02:53:13;95628.22;;;17.74;100.00
6030;BME280;3043;42.682;23.376;2022-07-19T02:55:40;95625.72;;;17.71;100.00
6030;BME280;3043;42.682;23.376;2022-07-19T02:58:05;95623.38;;;17.65;100.00
6030;BME280;3043;42.682;23.376;2022-07-19T03:00:31;95621.78;;;17.61;100.00
6030;BME280;3043;42.682;23.376;2022-07-19T03:02:57;95621.25;;;17.53;100.00
6030;BME280;3043;42.682;23.376;2022-07-19T03:05:42;95623.63;;;17.59;100.00
6030;BME280;3043;42.682;23.376;2022-07-19T03:08:08;95620.34;;;17.54;100.00
6030;BME280;3043;42.682;23.376;2022-07-19T03:10:33;95627.38;;;17.52;100.00
6030;BME280;3043;42.682;23.376;2022-07-19T03:12:59;95622.41;;;17.46;100.00
6030;BME280;3043;42.682;23.376;2022-07-19T03:15:24;95628.13;;;17.34;100.00
6030;BME280;3043;42.682;23.376;2022-07-19T03:17:50;95615.94;;;17.33;100.00
6030;BME280;3043;42.682;23.376;2022-07-19T03:20:16;95612.28;;;17.37;100.00
6030;BME280;3043;42.682;23.376;2022-07-19T03:22:41;95621.06;;;17.36;100.00
6030;BME280;3043;42.682;23.376;2022-07-19T03:25:07;95620.72;;;17.45;100.00
6030;BME280;3043;42.682;23.376;2022-07-19T03:27:33;95627.88;;;17.61;100.00
6030;BME280;3043;42.682;23.376;2022-07-19T03:29:58;95624.41;;;17.81;100.00
6030;BME280;3043;42.682;23.376;2022-07-19T03:32:24;95630.19;;;18.09;100.00
6030;BME280;3043;42.682;23.376;2022-07-19T03:34:49;95630.78;;;18.34;100.00
6030;BME280;3043;42.682;23.376;2022-07-19T03:37:15;95638.16;;;18.65;100.00
6030;BME280;3043;42.682;23.376;2022-07-19T03:39:40;95636.69;;;18.96;100.00
6030;BME280;3043;42.682;23.376;2022-07-19T03:42:06;95640.63;;;19.23;100.00
6030;BME280;3043;42.682;23.376;2022-07-19T03:44:31;95642.38;;;19.41;100.00
6030;BME280;3043;42.682;23.376;2022-07-19T03:46:57;95656.78;;;19.52;100.00
6030;BME280;3043;42.682;23.376;2022-07-19T03:49:22;95646.69;;;19.61;100.00
6030;BME280;3043;42.682;23.376;2022-07-19T03:51:47;95648.34;;;19.81;100.00
6030;BME280;3043;42.682;23.376;2022-07-19T03:54:13;95641.69;;;20.08;100.00
6030;BME280;3043;42.682;23.376;2022-07-19T03:56:38;95645.72;;;20.32;100.00
6030;BME280;3043;42.682;23.376;2022-07-19T03:59:04;95646.31;;;20.69;100.00
6030;BME280;3043;42.682;23.376;2022-07-19T04:01:30;95648.09;;;21.17;100.00
6030;BME280;3043;42.682;23.376;2022-07-19T04:03:55;95658.63;;;21.48;100.00
6030;BME280;3043;42.682;23.376;2022-07-19T04:06:20;95660.66;;;21.74;100.00
6030;BME280;3043;42.682;23.376;2022-07-19T04:08:46;95654.97;;;22.11;100.00
6030;BME280;3043;42.682;23.376;2022-07-19T04:11:11;95660.28;;;22.39;100.00
6030;BME280;3043;42.682;23.376;2022-07-19T04:13:37;95657.34;;;22.88;100.00
6030;BME280;3043;42.682;23.376;2022-07-19T04:16:03;95666.00;;;23.04;100.00
6030;BME280;3043;42.682;23.376;2022-07-19T04:18:28;95664.66;;;23.39;99.20
6030;BME280;3043;42.682;23.376;2022-07-19T04:20:54;95661.59;;;23.59;97.22
6030;BME280;3043;42.682;23.376;2022-07-19T04:23:19;95658.91;;;23.99;93.13
6030;BME280;3043;42.682;23.376;2022-07-19T04:25:45;95663.31;;;24.25;90.38
6030;BME280;3043;42.682;23.376;2022-07-19T04:28:10;95651.94;;;24.50;87.73
6030;BME280;3043;42.682;23.376;2022-07-19T04:30:36;95659.47;;;24.81;85.95
6030;BME280;3043;42.682;23.376;2022-07-19T04:33:01;95659.03;;;25.12;82.91
6030;BME280;3043;42.682;23.376;2022-07-19T04:35:27;95648.38;;;25.50;78.20
6030;BME280;3043;42.682;23.376;2022-07-19T04:37:52;95652.44;;;25.66;76.03
6030;BME280;3043;42.682;23.376;2022-07-19T04:40:18;95654.47;;;25.86;74.05
6030;BME280;3043;42.682;23.376;2022-07-19T04:42:43;95646.81;;;25.94;71.74
6030;BME280;3043;42.682;23.376;2022-07-19T04:45:09;95653.25;;;25.79;73.35
6030;BME280;3043;42.682;23.376;2022-07-19T04:47:34;95653.91;;;26.17;71.60
6030;BME280;3043;42.682;23.376;2022-07-19T04:50:00;95656.94;;;26.48;68.29
6030;BME280;3043;42.682;23.376;2022-07-19T04:52:25;95656.81;;;26.60;67.51
6030;BME280;3043;42.682;23.376;2022-07-19T04:54:51;95657.72;;;26.72;67.13
6030;BME280;3043;42.682;23.376;2022-07-19T04:57:16;95663.78;;;27.18;64.21
6030;BME280;3043;42.682;23.376;2022-07-19T04:59:42;95657.78;;;27.38;63.11
6030;BME280;3043;42.682;23.376;2022-07-19T05:02:07;95664.88;;;27.59;62.04
6030;BME280;3043;42.682;23.376;2022-07-19T05:04:33;95669.91;;;27.96;59.79
6030;BME280;3043;42.682;23.376;2022-07-19T05:06:58;95662.25;;;28.13;58.09
6030;BME280;3043;42.682;23.376;2022-07-19T05:09:28;95671.75;;;28.27;57.97
6030;BME280;3043;42.682;23.376;2022-07-19T05:11:54;95666.53;;;28.57;56.20
6030;BME280;3043;42.682;23.376;2022-07-19T05:14:20;95668.00;;;28.18;56.67
6030;BME280;3043;42.682;23.376;2022-07-19T05:16:46;95666.25;;;28.08;56.26
6030;BME280;3043;42.682;23.376;2022-07-19T05:19:13;95665.69;;;27.82;57.52
6030;BME280;3043;42.682;23.376;2022-07-19T05:21:38;95670.56;;;27.55;57.94
6030;BME280;3043;42.682;23.376;2022-07-19T05:24:04;95662.09;;;27.61;57.55
6030;BME280;3043;42.682;23.376;2022-07-19T05:26:29;95670.13;;;27.28;59.08
6030;BME280;3043;42.682;23.376;2022-07-19T05:28:55;95662.88;;;27.30;59.82
6030;BME280;3043;42.682;23.376;2022-07-19T05:31:21;95665.25;;;27.66;57.82
6030;BME280;3043;42.682;23.376;2022-07-19T05:33:46;95669.81;;;27.75;57.46
6030;BME280;3043;42.682;23.376;2022-07-19T05:36:12;95654.31;;;27.91;58.57
6030;BME280;3043;42.682;23.376;2022-07-19T05:38:38;95667.94;;;28.40;56.01
6030;BME280;3043;42.682;23.376;2022-07-19T05:41:04;95668.69;;;28.83;53.62
6030;BME280;3043;42.682;23.376;2022-07-19T05:43:30;95668.19;;;28.99;53.91
6030;BME280;3043;42.682;23.376;2022-07-19T05:45:55;95666.78;;;29.76;50.62
6030;BME280;3043;42.682;23.376;2022-07-19T05:48:21;95670.19;;;30.16;49.04
6030;BME280;3043;42.682;23.376;2022-07-19T05:50:46;95669.06;;;29.90;50.37
6030;BME280;3043;42.682;23.376;2022-07-19T05:53:12;95673.47;;;30.86;47.35
6030;BME280;3043;42.682;23.376;2022-07-19T05:55:37;95676.34;;;31.21;45.38
6030;BME280;3043;42.682;23.376;2022-07-19T05:58:03;95669.50;;;30.99;45.46
6030;BME280;3043;42.682;23.376;2022-07-19T06:00:28;95673.31;;;30.97;46.40
6030;BME280;3043;42.682;23.376;2022-07-19T06:02:54;95660.84;;;31.34;44.50
6030;BME280;3043;42.682;23.376;2022-07-19T06:05:19;95661.38;;;31.28;44.69
6030;BME280;3043;42.682;23.376;2022-07-19T06:07:45;95660.34;;;31.75;43.38
6030;BME280;3043;42.682;23.376;2022-07-19T06:10:10;95662.69;;;31.61;43.61
6030;BME280;3043;42.682;23.376;2022-07-19T06:12:36;95666.19;;;31.98;42.50
6030;BME280;3043;42.682;23.376;2022-07-19T06:15:01;95658.63;;;32.28;41.79
6030;BME280;3043;42.682;23.376;2022-07-19T06:17:27;95660.03;;;32.67;41.51
6030;BME280;3043;42.682;23.376;2022-07-19T06:19:52;95656.50;;;33.36;39.31
6030;BME280;3043;42.682;23.376;2022-07-19T06:22:18;95660.03;;;33.70;38.97
6030;BME280;3043;42.682;23.376;2022-07-19T06:24:43;95664.25;;;34.06;37.49
6030;BME280;3043;42.682;23.376;2022-07-19T06:27:08;95661.69;;;34.70;37.10
6030;BME280;3043;42.682;23.376;2022-07-19T06:29:34;95657.16;;;34.95;36.38
6030;BME280;3043;42.682;23.376;2022-07-19T06:32:00;95664.34;;;34.38;37.85
6030;BME280;3043;42.682;23.376;2022-07-19T06:34:25;95662.22;;;35.76;34.37
6030;BME280;3043;42.682;23.376;2022-07-19T06:36:51;95658.06;;;36.13;34.08
6030;BME280;3043;42.682;23.376;2022-07-19T06:39:16;95662.84;;;36.25;33.34
6030;BME280;3043;42.682;23.376;2022-07-19T06:41:42;95665.38;;;35.96;34.28
6030;BME280;3043;42.682;23.376;2022-07-19T06:44:07;95662.56;;;36.51;33.37
6030;BME280;3043;42.682;23.376;2022-07-19T06:46:32;95660.50;;;35.92;34.05
6030;BME280;3043;42.682;23.376;2022-07-19T06:48:58;95660.47;;;36.61;32.17
6030;BME280;3043;42.682;23.376;2022-07-19T06:51:23;95654.16;;;36.91;31.71
6030;BME280;3043;42.682;23.376;2022-07-19T06:53:49;95656.59;;;37.23;31.32
6030;BME280;3043;42.682;23.376;2022-07-19T06:56:14;95654.84;;;37.30;30.83
6030;BME280;3043;42.682;23.376;2022-07-19T06:58:40;95665.84;;;36.61;31.02
6030;BME280;3043;42.682;23.376;2022-07-19T07:01:05;95657.84;;;35.83;32.08
6030;BME280;3043;42.682;23.376;2022-07-19T07:03:31;95659.81;;;35.98;32.37
6030;BME280;3043;42.682;23.376;2022-07-19T07:05:56;95659.69;;;36.22;31.53
6030;BME280;3043;42.682;23.376;2022-07-19T07:08:22;95661.28;;;36.39;30.13
6030;BME280;3043;42.682;23.376;2022-07-19T07:10:47;95654.78;;;36.78;30.81
6030;BME280;3043;42.682;23.376;2022-07-19T07:13:12;95659.00;;;36.81;30.63
6030;BME280;3043;42.682;23.376;2022-07-19T07:15:38;95658.63;;;36.84;29.69
6030;BME280;3043;42.682;23.376;2022-07-19T07:18:05;95655.63;;;36.79;30.12
6030;BME280;3043;42.682;23.376;2022-07-19T07:20:30;95652.22;;;36.32;31.07
6030;BME280;3043;42.682;23.376;2022-07-19T07:22:56;95653.28;;;37.65;27.68
6030;BME280;3043;42.682;23.376;2022-07-19T07:25:21;95650.13;;;37.76;27.57
6030;BME280;3043;42.682;23.376;2022-07-19T07:27:47;95657.41;;;38.04;26.30
6030;BME280;3043;42.682;23.376;2022-07-19T07:30:12;95659.09;;;37.76;25.45
6030;BME280;3043;42.682;23.376;2022-07-19T07:32:38;95650.00;;;37.03;26.08
6030;BME280;3043;42.682;23.376;2022-07-19T07:35:03;95649.97;;;36.66;27.25
6030;BME280;3043;42.682;23.376;2022-07-19T07:37:29;95639.16;;;37.11;27.23
6030;BME280;3043;42.682;23.376;2022-07-19T07:39:55;95648.28;;;37.10;27.71
6030;BME280;3043;42.682;23.376;2022-07-19T07:42:21;95637.88;;;37.36;27.14
6030;BME280;3043;42.682;23.376;2022-07-19T07:44:46;95639.63;;;36.77;27.08
6030;BME280;3043;42.682;23.376;2022-07-19T07:47:12;95642.66;;;36.52;27.78
6030;BME280;3043;42.682;23.376;2022-07-19T07:49:39;95638.00;;;36.07;26.88
6030;BME280;3043;42.682;23.376;2022-07-19T07:52:05;95633.94;;;35.72;28.37
6030;BME280;3043;42.682;23.376;2022-07-19T07:54:31;95626.47;;;36.29;27.59
6030;BME280;3043;42.682;23.376;2022-07-19T07:56:57;95635.09;;;36.47;27.28
6030;BME280;3043;42.682;23.376;2022-07-19T07:59:22;95627.47;;;35.98;27.02
6030;BME280;3043;42.682;23.376;2022-07-19T08:01:47;95636.03;;;35.54;27.59
6030;BME280;3043;42.682;23.376;2022-07-19T08:04:13;95639.13;;;35.19;27.77
6030;BME280;3043;42.682;23.376;2022-07-19T08:06:38;95624.66;;;35.44;26.38
6030;BME280;3043;42.682;23.376;2022-07-19T08:09:04;95633.63;;;34.89;27.94
6030;BME280;3043;42.682;23.376;2022-07-19T08:11:30;95634.44;;;35.05;27.28
6030;BME280;3043;42.682;23.376;2022-07-19T08:13:55;95631.06;;;35.19;25.49
6030;BME280;3043;42.682;23.376;2022-07-19T08:16:21;95625.28;;;35.46;26.03
6030;BME280;3043;42.682;23.376;2022-07-19T08:18:46;95646.81;;;35.62;25.01
6030;BME280;3043;42.682;23.376;2022-07-19T08:21:12;95632.56;;;35.30;25.77
6030;BME280;3043;42.682;23.376;2022-07-19T08:23:37;95643.53;;;34.88;26.34
6030;BME280;3043;42.682;23.376;2022-07-19T08:26:05;95633.09;;;34.37;28.14
6030;BME280;3043;42.682;23.376;2022-07-19T08:28:30;95621.69;;;34.59;27.54
6030;BME280;3043;42.682;23.376;2022-07-19T08:30:56;95627.06;;;34.99;27.90
6030;BME280;3043;42.682;23.376;2022-07-19T08:33:21;95622.03;;;36.06;26.01
6030;BME280;3043;42.682;23.376;2022-07-19T08:35:46;95625.25;;;36.32;25.79
6030;BME280;3043;42.682;23.376;2022-07-19T08:38:12;95626.91;;;35.71;25.63
6030;BME280;3043;42.682;23.376;2022-07-19T08:40:41;95629.09;;;34.89;26.56
6030;BME280;3043;42.682;23.376;2022-07-19T08:43:07;95627.03;;;34.43;26.75
6030;BME280;3043;42.682;23.376;2022-07-19T08:45:34;95613.25;;;34.38;26.87
6030;BME280;3043;42.682;23.376;2022-07-19T08:48:04;95623.50;;;35.07;27.12
6030;BME280;3043;42.682;23.376;2022-07-19T08:50:31;95613.94;;;35.04;26.56
6030;BME280;3043;42.682;23.376;2022-07-19T08:52:57;95623.94;;;35.50;26.06
6030;BME280;3043;42.682;23.376;2022-07-19T08:55:24;95611.16;;;33.92;27.11
6030;BME280;3043;42.682;23.376;2022-07-19T08:57:50;95602.28;;;33.32;28.06
6030;BME280;3043;42.682;23.376;2022-07-19T09:00:33;95605.16;;;32.80;29.18
6030;BME280;3043;42.682;23.376;2022-07-19T09:03:04;95611.84;;;33.27;28.13
6030;BME280;3043;42.682;23.376;2022-07-19T09:05:30;95614.94;;;33.40;28.14
6030;BME280;3043;42.682;23.376;2022-07-19T09:10:25;95605.78;;;33.92;27.84
6030;BME280;3043;42.682;23.376;2022-07-19T09:18:28;95609.59;;;34.71;26.74
6030;BME280;3043;42.682;23.376;2022-07-19T09:21:12;95596.28;;;34.86;26.57
6030;BME280;3043;42.682;23.376;2022-07-19T09:23:40;95598.75;;;35.19;27.37
6030;BME280;3043;42.682;23.376;2022-07-19T09:26:06;95601.44;;;35.27;25.93
6030;BME280;3043;42.682;23.376;2022-07-19T09:28:33;95608.56;;;34.64;25.80
6030;BME280;3043;42.682;23.376;2022-07-19T09:30:59;95613.19;;;34.14;26.49
6030;BME280;3043;42.682;23.376;2022-07-19T09:33:28;95585.22;;;33.75;27.26
6030;BME280;3043;42.682;23.376;2022-07-19T09:35:58;95602.59;;;33.55;28.12
6030;BME280;3043;42.682;23.376;2022-07-19T09:38:34;95584.94;;;33.44;27.39
6030;BME280;3043;42.682;23.376;2022-07-19T09:41:16;95587.66;;;32.50;29.44
6030;BME280;3043;42.682;23.376;2022-07-19T09:49:08;95575.88;;;33.12;28.80
6030;BME280;3043;42.682;23.376;2022-07-19T09:51:38;95583.09;;;33.45;28.20
6030;BME280;3043;42.682;23.376;2022-07-19T09:54:06;95609.47;;;33.49;27.77
6030;BME280;3043;42.682;23.376;2022-07-19T09:56:32;95586.72;;;32.85;28.07
6030;BME280;3043;42.682;23.376;2022-07-19T09:58:58;95587.00;;;31.68;29.68
6030;BME280;3043;42.682;23.376;2022-07-19T10:01:25;95586.75;;;30.98;30.45
6030;BME280;3043;42.682;23.376;2022-07-19T10:03:58;95571.50;;;30.62;31.14
6030;BME280;3043;42.682;23.376;2022-07-19T10:06:26;95573.50;;;30.41;32.06
6030;BME280;3043;42.682;23.376;2022-07-19T10:08:53;95573.06;;;30.45;32.30
6030;BME280;3043;42.682;23.376;2022-07-19T10:11:20;95563.25;;;30.46;32.76
6030;BME280;3043;42.682;23.376;2022-07-19T10:13:48;95572.44;;;30.80;32.21
6030;BME280;3043;42.682;23.376;2022-07-19T10:16:17;95567.34;;;30.21;32.77
6030;BME280;3043;42.682;23.376;2022-07-19T10:19:12;95562.94;;;29.92;33.71
6030;BME280;3043;42.682;23.376;2022-07-19T10:21:41;95554.84;;;30.87;33.89
6030;BME280;3043;42.682;23.376;2022-07-19T10:24:07;95569.16;;;32.39;31.28
6030;BME280;3043;42.682;23.376;2022-07-19T10:26:43;95554.69;;;32.75;29.84
6030;BME280;3043;42.682;23.376;2022-07-19T10:29:15;95551.94;;;32.93;30.26
6030;BME280;3043;42.682;23.376;2022-07-19T10:31:41;95546.88;;;32.38;29.85
6030;BME280;3043;42.682;23.376;2022-07-19T10:34:10;95568.34;;;31.22;31.14
6030;BME280;3043;42.682;23.376;2022-07-19T10:36:43;95549.81;;;30.84;31.97
6030;BME280;3043;42.682;23.376;2022-07-19T10:42:03;95548.44;;;30.51;32.26
6030;BME280;3043;42.682;23.376;2022-07-19T10:44:29;95551.00;;;30.15;33.15
6030;BME280;3043;42.682;23.376;2022-07-19T10:46:55;95557.34;;;29.95;34.27
6030;BME280;3043;42.682;23.376;2022-07-19T10:49:43;95546.78;;;29.65;34.26
6030;BME280;3043;42.682;23.376;2022-07-19T10:52:35;95544.69;;;29.78;34.97
6030;BME280;3043;42.682;23.376;2022-07-19T11:00:44;95533.88;;;29.89;34.14
6030;BME280;3043;42.682;23.376;2022-07-19T11:05:53;95528.75;;;29.38;35.29
6030;BME280;3043;42.682;23.376;2022-07-19T11:08:40;95527.06;;;29.27;35.55
6030;BME280;3043;42.682;23.376;2022-07-19T11:11:11;95531.22;;;29.20;35.63
6030;BME280;3043;42.682;23.376;2022-07-19T11:13:39;95527.06;;;29.27;35.04
6030;BME280;3043;42.682;23.376;2022-07-19T11:16:05;95517.50;;;29.25;35.77
6030;BME280;3043;42.682;23.376;2022-07-19T11:18:31;95530.72;;;29.55;35.32
6030;BME280;3043;42.682;23.376;2022-07-19T11:20:59;95517.00;;;29.69;33.91
6030;BME280;3043;42.682;23.376;2022-07-19T11:23:28;95526.84;;;29.88;34.21
6030;BME280;3043;42.682;23.376;2022-07-19T11:26:08;95516.47;;;29.85;33.78
6030;BME280;3043;42.682;23.376;2022-07-19T11:28:35;95514.78;;;29.65;34.12
6030;BME280;3043;42.682;23.376;2022-07-19T11:31:17;95518.50;;;29.33;34.33
6030;BME280;3043;42.682;23.376;2022-07-19T11:33:44;95516.13;;;29.30;34.54
6030;BME280;3043;42.682;23.376;2022-07-19T11:36:11;95511.44;;;29.23;34.84
6030;BME280;3043;42.682;23.376;2022-07-19T11:38:43;95506.28;;;29.40;34.71
6030;BME280;3043;42.682;23.376;2022-07-19T11:41:15;95507.34;;;29.09;34.70
6030;BME280;3043;42.682;23.376;2022-07-19T11:44:03;95501.47;;;29.15;34.90
6030;BME280;3043;42.682;23.376;2022-07-19T11:46:30;95506.25;;;29.21;35.34
6030;BME280;3043;42.682;23.376;2022-07-19T11:48:58;95502.25;;;28.97;35.13
6030;BME280;3043;42.682;23.376;2022-07-19T11:51:23;95501.25;;;28.58;35.83
6030;BME280;3043;42.682;23.376;2022-07-19T11:53:51;95501.53;;;28.14;36.06
6030;BME280;3043;42.682;23.376;2022-07-19T11:56:30;95501.41;;;27.95;36.61
6030;BME280;3043;42.682;23.376;2022-07-19T11:59:02;95493.41;;;28.16;36.64
6030;BME280;3043;42.682;23.376;2022-07-19T12:01:30;95484.66;;;28.55;35.77
6030;BME280;3043;42.682;23.376;2022-07-19T12:04:07;95487.56;;;28.72;35.57
6030;BME280;3043;42.682;23.376;2022-07-19T12:06:45;95487.34;;;28.85;35.76
6030;BME280;3043;42.682;23.376;2022-07-19T12:09:16;95484.81;;;28.93;34.75
6030;BME280;3043;42.682;23.376;2022-07-19T12:11:52;95479.66;;;28.61;36.33
6030;BME280;3043;42.682;23.376;2022-07-19T12:16:44;95490.88;;;27.41;36.31
6030;BME280;3043;42.682;23.376;2022-07-19T12:19:10;95481.50;;;27.15;36.68
6030;BME280;3043;42.682;23.376;2022-07-19T12:26:41;95468.66;;;27.63;36.69
6030;BME280;3043;42.682;23.376;2022-07-19T12:31:43;95475.38;;;28.19;36.40
6030;BME280;3043;42.682;23.376;2022-07-19T12:34:09;95476.19;;;28.20;35.85
6030;BME280;3043;42.682;23.376;2022-07-19T12:36:36;95469.88;;;27.91;36.29
6030;BME280;3043;42.682;23.376;2022-07-19T12:39:02;95474.38;;;27.79;36.62
6030;BME280;3043;42.682;23.376;2022-07-19T12:41:28;95467.22;;;27.59;36.69
6030;BME280;3043;42.682;23.376;2022-07-19T12:43:53;95465.44;;;27.48;37.06
6030;BME280;3043;42.682;23.376;2022-07-19T12:46:19;95464.50;;;27.70;36.82
6030;BME280;3043;42.682;23.376;2022-07-19T12:48:44;95461.66;;;28.03;36.48
6030;BME280;3043;42.682;23.376;2022-07-19T12:51:09;95460.13;;;28.01;36.11
6030;BME280;3043;42.682;23.376;2022-07-19T12:53:35;95454.53;;;28.04;36.44
6030;BME280;3043;42.682;23.376;2022-07-19T12:56:01;95448.41;;;28.33;36.10
6030;BME280;3043;42.682;23.376;2022-07-19T12:58:26;95446.16;;;28.38;35.01
6030;BME280;3043;42.682;23.376;2022-07-19T13:01:10;95441.63;;;28.29;35.43
6030;BME280;3043;42.682;23.376;2022-07-19T13:03:38;95450.81;;;28.36;35.82
6030;BME280;3043;42.682;23.376;2022-07-19T13:06:05;95443.88;;;28.24;35.38
6030;BME280;3043;42.682;23.376;2022-07-19T13:08:33;95449.44;;;28.21;35.95
6030;BME280;3043;42.682;23.376;2022-07-19T13:10:58;95438.78;;;28.21;36.56
6030;BME280;3043;42.682;23.376;2022-07-19T13:13:25;95436.22;;;28.10;36.40
6030;BME280;3043;42.682;23.376;2022-07-19T13:15:51;95439.28;;;28.06;36.00
6030;BME280;3043;42.682;23.376;2022-07-19T13:18:17;95435.88;;;27.62;36.62
6030;BME280;3043;42.682;23.376;2022-07-19T13:20:43;95431.59;;;27.19;38.13
6030;BME280;3043;42.682;23.376;2022-07-19T13:23:09;95437.41;;;27.13;36.90
6030;BME280;3043;42.682;23.376;2022-07-19T13:25:35;95432.34;;;27.10;37.64
6030;BME280;3043;42.682;23.376;2022-07-19T13:28:00;95436.94;;;27.08;37.24
6030;BME280;3043;42.682;23.376;2022-07-19T13:30:27;95431.19;;;26.92;37.28
6030;BME280;3043;42.682;23.376;2022-07-19T13:32:52;95431.44;;;26.89;37.52
6030;BME280;3043;42.682;23.376;2022-07-19T13:35:18;95414.50;;;27.01;38.09
6030;BME280;3043;42.682;23.376;2022-07-19T13:37:43;95418.09;;;27.00;38.44
6030;BME280;3043;42.682;23.376;2022-07-19T13:40:09;95418.28;;;27.30;37.69